createdAt,value
2023-01-07T00:00:17.527Z,4.64
2023-01-07T00:02:44.116Z,4.57
2023-01-07T00:05:10.605Z,4.54
2023-01-07T00:07:37.024Z,4.54
2023-01-07T00:10:03.645Z,4.56
2023-01-07T00:12:31.943Z,4.59
2023-01-07T00:14:58.380Z,4.62
2023-01-07T00:17:24.810Z,4.60
2023-01-07T00:19:51.281Z,4.58
2023-01-07T00:22:17.718Z,4.63
2023-01-07T00:24:44.204Z,4.66
2023-01-07T00:27:10.638Z,4.67
2023-01-07T00:29:37.123Z,4.57
2023-01-07T00:32:03.671Z,4.54
2023-01-07T00:34:30.090Z,4.57
2023-01-07T00:37:16.485Z,4.58
2023-01-07T00:39:42.975Z,4.56
2023-01-07T00:42:27.882Z,4.60
2023-01-07T00:44:54.322Z,4.64
2023-01-07T00:47:20.763Z,4.68
2023-01-07T00:49:47.206Z,4.72
2023-01-07T00:52:13.650Z,4.74
2023-01-07T00:54:40.082Z,4.72
2023-01-07T00:57:06.524Z,4.72
2023-01-07T00:59:32.988Z,4.72
2023-01-07T01:01:59.506Z,4.74
2023-01-07T01:04:26.076Z,4.73
2023-01-07T01:06:52.598Z,4.75
2023-01-07T01:09:20.738Z,4.74
2023-01-07T01:11:47.332Z,4.78
2023-01-07T01:14:13.807Z,4.78
2023-01-07T01:16:40.270Z,4.71
2023-01-07T01:19:06.783Z,4.72
2023-01-07T01:21:33.216Z,4.74
2023-01-07T01:23:59.669Z,4.72
2023-01-07T01:26:26.138Z,4.72
2023-01-07T01:28:52.621Z,4.73
2023-01-07T01:31:19.255Z,4.72
2023-01-07T01:33:45.757Z,4.68
2023-01-07T01:36:13.205Z,4.71
2023-01-07T01:38:40.183Z,4.74
2023-01-07T01:41:07.148Z,4.76
2023-01-07T01:43:35.445Z,4.77
2023-01-07T01:46:03.499Z,4.78
2023-01-07T01:48:31.032Z,4.79
2023-01-07T01:50:58.082Z,4.78
2023-01-07T01:53:28.868Z,4.78
2023-01-07T01:55:57.248Z,4.71
2023-01-07T01:58:33.371Z,4.72
2023-01-07T02:00:59.941Z,4.77
2023-01-07T02:03:28.935Z,4.80
2023-01-07T02:05:55.584Z,4.82
2023-01-07T02:08:23.283Z,4.77
2023-01-07T02:11:12.715Z,4.68
2023-01-07T02:13:51.182Z,4.70
2023-01-07T02:16:17.643Z,4.71
2023-01-07T02:18:56.028Z,4.73
2023-01-07T02:21:41.238Z,4.78
2023-01-07T02:24:07.669Z,4.80
2023-01-07T02:26:42.257Z,4.83
2023-01-07T02:29:14.534Z,4.83
2023-01-07T02:32:04.248Z,4.81
2023-01-07T02:34:40.373Z,4.70
2023-01-07T02:37:15.923Z,4.72
2023-01-07T02:39:58.423Z,4.73
2023-01-07T02:42:24.816Z,4.69
2023-01-07T02:44:54.272Z,4.71
2023-01-07T02:47:35.245Z,4.74
2023-01-07T02:50:01.740Z,4.67
2023-01-07T02:52:29.320Z,4.69
2023-01-07T02:54:55.772Z,4.73
2023-01-07T02:57:22.191Z,4.78
2023-01-07T03:00:04.746Z,4.81
2023-01-07T03:02:49.483Z,4.77
2023-01-07T03:05:18.899Z,4.75
2023-01-07T03:08:03.821Z,4.76
2023-01-07T03:10:37.962Z,4.70
2023-01-07T03:13:10.305Z,4.66
2023-01-07T03:15:40.222Z,4.73
2023-01-07T03:18:11.508Z,4.70
2023-01-07T03:20:39.028Z,4.68
2023-01-07T03:23:06.923Z,4.72
2023-01-07T03:25:35.230Z,4.76
2023-01-07T03:28:02.481Z,4.81
2023-01-07T03:30:29.702Z,4.77
2023-01-07T03:33:04.394Z,4.74
2023-01-07T03:35:32.464Z,4.78
2023-01-07T03:38:00.593Z,4.81
2023-01-07T03:40:27.350Z,4.82
2023-01-07T03:42:54.199Z,4.77
2023-01-07T03:45:24.400Z,4.73
2023-01-07T03:47:52.181Z,4.76
2023-01-07T03:50:19.162Z,4.76
2023-01-07T03:52:45.635Z,4.71
2023-01-07T03:55:12.368Z,4.71
2023-01-07T03:57:38.856Z,4.70
2023-01-07T04:00:06.699Z,4.64
2023-01-07T04:02:33.210Z,4.68
2023-01-07T04:04:59.623Z,4.72
2023-01-07T04:07:26.042Z,4.76
2023-01-07T04:09:52.582Z,4.79
2023-01-07T04:12:19.153Z,4.81
2023-01-07T04:14:45.850Z,4.84
2023-01-07T04:17:12.321Z,4.85
2023-01-07T04:19:39.404Z,4.85
2023-01-07T04:22:06.492Z,4.86
2023-01-07T04:24:33.300Z,4.82
2023-01-07T04:26:59.733Z,4.79
2023-01-07T04:29:26.229Z,4.81
2023-01-07T04:31:53.387Z,4.82
2023-01-07T04:34:19.814Z,4.86
2023-01-07T04:36:46.299Z,4.83
2023-01-07T04:39:12.762Z,4.82
2023-01-07T04:41:39.327Z,4.84
2023-01-07T04:44:05.852Z,4.83
2023-01-07T04:46:32.407Z,4.84
2023-01-07T04:48:58.907Z,4.81
2023-01-07T04:51:25.379Z,4.81
2023-01-07T04:53:51.930Z,4.74
2023-01-07T04:56:18.444Z,4.61
2023-01-07T04:58:44.962Z,4.62
2023-01-07T05:01:11.746Z,4.66
2023-01-07T05:03:38.347Z,4.57
2023-01-07T05:06:04.950Z,4.57
2023-01-07T05:08:31.442Z,4.61
2023-01-07T05:10:57.896Z,4.53
2023-01-07T05:13:24.522Z,4.55
2023-01-07T05:15:51.068Z,4.56
2023-01-07T05:18:17.608Z,4.56
2023-01-07T05:20:44.044Z,4.60
2023-01-07T05:23:10.465Z,4.60
2023-01-07T05:25:36.970Z,4.62
2023-01-07T05:28:03.860Z,4.64
2023-01-07T05:30:30.405Z,4.64
2023-01-07T05:32:56.839Z,4.64
2023-01-07T05:35:23.268Z,4.60
2023-01-07T05:37:49.706Z,4.62
2023-01-07T05:40:16.169Z,4.64
2023-01-07T05:42:43.721Z,4.67
2023-01-07T05:45:10.613Z,4.67
2023-01-07T05:47:37.058Z,4.65
2023-01-07T05:50:03.671Z,4.59
2023-01-07T05:52:30.106Z,4.54
2023-01-07T05:54:56.527Z,4.52
2023-01-07T05:57:23.032Z,4.53
2023-01-07T05:59:49.471Z,4.54
2023-01-07T06:02:15.919Z,4.53
2023-01-07T06:04:42.419Z,4.50
2023-01-07T06:07:08.847Z,4.51
2023-01-07T06:09:35.298Z,4.53
2023-01-07T06:12:01.720Z,4.54
2023-01-07T06:14:28.167Z,4.56
2023-01-07T06:16:54.615Z,4.56
2023-01-07T06:19:22.919Z,4.56
2023-01-07T06:21:49.922Z,4.58
2023-01-07T06:24:16.335Z,4.58
2023-01-07T06:26:42.846Z,4.59
2023-01-07T06:29:10.565Z,4.56
2023-01-07T06:31:37.222Z,4.56
2023-01-07T06:34:03.705Z,4.57
2023-01-07T06:36:30.280Z,4.58
2023-01-07T06:38:56.751Z,4.59
2023-01-07T06:41:23.178Z,4.61
2023-01-07T06:43:49.635Z,4.60
2023-01-07T06:46:16.324Z,4.51
2023-01-07T06:48:42.783Z,4.46
2023-01-07T06:51:09.254Z,4.50
2023-01-07T06:53:35.893Z,4.54
2023-01-07T06:56:02.446Z,4.54
2023-01-07T06:58:28.919Z,4.44
2023-01-07T07:00:55.450Z,4.41
2023-01-07T07:03:21.917Z,4.47
2023-01-07T07:05:48.353Z,4.51
2023-01-07T07:08:14.846Z,4.50
2023-01-07T07:10:41.315Z,4.51
2023-01-07T07:13:08.393Z,4.55
2023-01-07T07:15:34.863Z,4.56
2023-01-07T07:18:01.313Z,4.56
2023-01-07T07:20:27.752Z,4.55
2023-01-07T07:22:54.220Z,4.56
2023-01-07T07:25:20.673Z,4.59
2023-01-07T07:27:47.467Z,4.53
2023-01-07T07:30:15.184Z,4.46
2023-01-07T07:32:41.899Z,4.51
2023-01-07T07:35:09.007Z,4.56
2023-01-07T07:37:35.447Z,4.55
2023-01-07T07:40:01.867Z,4.51
2023-01-07T07:42:28.304Z,4.53
2023-01-07T07:44:54.730Z,4.55
2023-01-07T07:47:21.363Z,4.58
2023-01-07T07:49:47.896Z,4.57
2023-01-07T07:52:14.355Z,4.57
2023-01-07T07:54:40.904Z,4.56
2023-01-07T07:57:07.329Z,4.52
2023-01-07T07:59:33.784Z,4.53
2023-01-07T08:02:00.278Z,4.55
2023-01-07T08:04:28.864Z,4.56
2023-01-07T08:06:55.778Z,4.58
2023-01-07T08:09:22.262Z,4.60
2023-01-07T08:11:48.740Z,4.61
2023-01-07T08:14:15.185Z,4.59
2023-01-07T08:16:41.612Z,4.60
2023-01-07T08:19:08.043Z,4.59
2023-01-07T08:21:34.494Z,4.58
2023-01-07T08:24:00.937Z,4.60
2023-01-07T08:26:27.601Z,4.62
2023-01-07T08:28:54.389Z,4.67
2023-01-07T08:31:21.000Z,4.68
2023-01-07T08:33:47.547Z,4.67
2023-01-07T08:36:22.650Z,4.69
2023-01-07T08:38:50.435Z,4.68
2023-01-07T08:41:16.892Z,4.67
2023-01-07T08:43:45.112Z,4.69
2023-01-07T08:46:11.560Z,4.70
2023-01-07T08:48:40.240Z,4.70
2023-01-07T08:51:07.095Z,4.70
2023-01-07T08:53:33.703Z,4.73
2023-01-07T08:56:00.174Z,4.76
2023-01-07T08:58:26.665Z,4.76
2023-01-07T09:00:53.465Z,4.79
2023-01-07T09:03:19.982Z,4.78
2023-01-07T09:05:46.958Z,4.82
2023-01-07T09:08:13.445Z,4.87
2023-01-07T09:10:39.929Z,4.87
2023-01-07T09:13:06.401Z,4.83
2023-01-07T09:15:32.832Z,4.84
2023-01-07T09:17:59.355Z,4.86
2023-01-07T09:20:25.781Z,4.87
2023-01-07T09:22:52.231Z,4.90
2023-01-07T09:25:18.683Z,4.95
2023-01-07T09:27:45.904Z,5.00
2023-01-07T09:30:12.654Z,5.00
2023-01-07T09:32:39.251Z,4.97
2023-01-07T09:35:06.411Z,4.97
2023-01-07T09:37:32.855Z,4.95
2023-01-07T09:40:01.224Z,4.93
2023-01-07T09:42:27.711Z,4.93
2023-01-07T09:45:00.278Z,4.99
2023-01-07T09:47:28.440Z,5.04
2023-01-07T09:50:00.362Z,5.05
2023-01-07T09:52:29.368Z,5.06
2023-01-07T09:55:01.825Z,5.06
2023-01-07T09:57:28.443Z,5.06
2023-01-07T09:59:55.118Z,5.06
2023-01-07T10:02:21.593Z,5.11
2023-01-07T10:04:49.846Z,5.12
2023-01-07T10:07:25.412Z,5.12
2023-01-07T10:09:51.822Z,5.14
2023-01-07T10:12:30.484Z,5.16
2023-01-07T10:14:59.986Z,5.15
2023-01-07T10:17:37.294Z,5.12
2023-01-07T10:20:22.760Z,5.14
2023-01-07T10:22:52.480Z,5.19
2023-01-07T10:25:21.024Z,5.24
2023-01-07T10:27:47.929Z,5.27
2023-01-07T10:30:37.078Z,5.28
2023-01-07T10:33:29.025Z,5.29
2023-01-07T10:35:58.509Z,5.26
2023-01-07T10:38:25.621Z,5.27
2023-01-07T10:40:55.283Z,5.27
2023-01-07T10:43:38.236Z,5.30
2023-01-07T10:46:31.081Z,5.35
2023-01-07T10:48:57.759Z,5.40
2023-01-07T10:51:33.129Z,5.43
2023-01-07T10:54:08.748Z,5.44
2023-01-07T10:56:38.319Z,5.46
2023-01-07T10:59:04.981Z,5.48
2023-01-07T11:01:33.811Z,5.50
2023-01-07T11:04:01.260Z,5.51
2023-01-07T11:06:30.687Z,5.51
2023-01-07T11:08:57.099Z,5.48
2023-01-07T11:11:24.353Z,5.48
2023-01-07T11:14:01.877Z,5.43
2023-01-07T11:16:35.834Z,5.37
2023-01-07T11:19:06.612Z,5.33
2023-01-07T11:21:44.719Z,5.34
2023-01-07T11:24:31.648Z,5.22
2023-01-07T11:27:10.287Z,5.25
2023-01-07T11:29:55.584Z,5.24
2023-01-07T11:32:26.190Z,5.18
2023-01-07T11:35:06.995Z,5.13
2023-01-07T11:37:43.671Z,5.15
2023-01-07T11:40:13.246Z,5.11
2023-01-07T11:42:51.737Z,5.14
2023-01-07T11:45:21.051Z,5.20
2023-01-07T11:47:53.516Z,5.28
2023-01-07T11:50:33.238Z,5.32
2023-01-07T11:53:01.025Z,5.36
2023-01-07T11:55:28.057Z,5.35
2023-01-07T11:58:28.601Z,5.41
2023-01-07T12:00:41.854Z,5.40
2023-01-07T12:03:12.308Z,5.41
2023-01-07T12:05:40.449Z,5.38
2023-01-07T12:08:07.733Z,5.35
2023-01-07T12:10:36.156Z,5.28
2023-01-07T12:13:04.575Z,5.23
2023-01-07T12:15:32.223Z,5.16
2023-01-07T12:17:58.697Z,5.14
2023-01-07T12:20:34.652Z,5.11
2023-01-07T12:23:17.887Z,5.04
2023-01-07T12:25:45.546Z,4.98
2023-01-07T12:28:16.562Z,4.97
2023-01-07T12:31:03.429Z,5.06
2023-01-07T12:33:32.909Z,5.12
2023-01-07T12:36:05.285Z,5.08
2023-01-07T12:38:34.777Z,5.13
2023-01-07T12:41:05.636Z,5.16
2023-01-07T12:43:35.159Z,5.21
2023-01-07T12:46:06.775Z,5.24
2023-01-07T12:48:52.037Z,5.30
2023-01-07T12:51:25.326Z,5.36
2023-01-07T12:54:01.392Z,5.38
2023-01-07T12:56:32.308Z,5.34
2023-01-07T12:59:03.025Z,5.32
2023-01-07T13:01:34.541Z,5.35
2023-01-07T13:04:06.994Z,5.33
2023-01-07T13:06:33.404Z,5.37
2023-01-07T13:08:59.792Z,5.31
2023-01-07T13:11:47.928Z,5.31
2023-01-07T13:14:25.888Z,5.27
2023-01-07T13:16:52.389Z,5.25
2023-01-07T13:19:18.837Z,5.22
2023-01-07T13:21:48.287Z,5.20
2023-01-07T13:24:54.599Z,5.21
2023-01-07T13:27:23.624Z,5.29
2023-01-07T13:29:52.900Z,5.34
2023-01-07T13:32:54.920Z,5.38
2023-01-07T13:35:28.536Z,5.32
2023-01-07T13:37:55.166Z,5.27
2023-01-07T13:40:21.676Z,5.23
2023-01-07T13:42:51.565Z,5.19
2023-01-07T13:45:28.856Z,5.14
2023-01-07T13:47:59.366Z,5.09
2023-01-07T13:50:25.814Z,5.06
2023-01-07T13:52:59.894Z,5.00
2023-01-07T13:55:32.540Z,5.01
2023-01-07T13:57:59.074Z,5.05
2023-01-07T14:00:39.607Z,5.13
2023-01-07T14:03:25.999Z,5.16
2023-01-07T14:06:12.361Z,5.14
2023-01-07T14:08:38.869Z,5.09
2023-01-07T14:11:05.353Z,4.94
2023-01-07T14:13:36.403Z,4.89
2023-01-07T14:16:12.044Z,4.91
2023-01-07T14:18:53.932Z,4.94
2023-01-07T14:21:25.731Z,5.01
2023-01-07T14:24:01.296Z,5.04
2023-01-07T14:26:33.734Z,5.02
2023-01-07T14:29:09.242Z,5.03
2023-01-07T14:31:35.992Z,5.02
2023-01-07T14:34:07.616Z,4.89
2023-01-07T14:36:52.883Z,4.78
2023-01-07T14:39:33.870Z,4.66
2023-01-07T14:42:18.660Z,4.62
2023-01-07T14:44:49.048Z,4.58
2023-01-07T14:47:35.412Z,4.57
2023-01-07T14:50:14.507Z,4.48
2023-01-07T14:52:53.730Z,4.47
2023-01-07T14:55:43.266Z,4.45
2023-01-07T14:58:21.949Z,4.49
2023-01-07T15:00:57.787Z,4.56
2023-01-07T15:03:38.125Z,4.58
2023-01-07T15:06:23.156Z,4.56
2023-01-07T15:09:09.870Z,4.53
2023-01-07T15:11:56.902Z,4.62
2023-01-07T15:14:54.232Z,4.67
2023-01-07T15:17:20.759Z,4.71
2023-01-07T15:19:47.241Z,4.72
2023-01-07T15:22:16.667Z,4.69
2023-01-07T15:24:43.083Z,4.68
2023-01-07T15:27:12.568Z,4.60
2023-01-07T15:29:48.199Z,4.47
2023-01-07T15:32:20.953Z,4.48
2023-01-07T15:34:47.412Z,4.48
2023-01-07T15:37:15.178Z,4.42
2023-01-07T15:39:48.569Z,4.47
2023-01-07T15:42:22.866Z,4.48
2023-01-07T15:44:50.821Z,4.46
2023-01-07T15:47:46.803Z,4.42
2023-01-07T15:50:33.810Z,4.40
2023-01-07T15:53:16.976Z,4.36
2023-01-07T15:55:45.281Z,4.46
2023-01-07T16:01:01.524Z,4.49
2023-01-07T16:03:28.993Z,4.55
2023-01-07T16:05:56.204Z,4.53
2023-01-07T16:08:30.294Z,4.46
2023-01-07T16:10:57.753Z,4.47
2023-01-07T16:13:24.260Z,4.40
2023-01-07T16:15:53.708Z,4.38
2023-01-07T16:18:20.253Z,4.32
2023-01-07T16:20:58.190Z,4.27
2023-01-07T16:23:25.190Z,4.28
2023-01-07T16:25:57.691Z,4.28
2023-01-07T16:28:27.671Z,4.27
2023-01-07T16:30:54.501Z,4.33
2023-01-07T16:33:22.928Z,4.34
2023-01-07T16:35:50.562Z,4.36
2023-01-07T16:38:18.933Z,4.41
2023-01-07T16:40:46.600Z,4.43
2023-01-07T16:43:33.327Z,4.46
2023-01-07T16:46:18.890Z,4.41
2023-01-07T16:48:46.281Z,4.41
2023-01-07T16:51:31.415Z,4.44
2023-01-07T16:54:19.624Z,4.48
2023-01-07T16:56:55.414Z,4.52
2023-01-07T16:59:24.718Z,4.55
2023-01-07T17:01:51.319Z,4.59
2023-01-07T17:04:20.279Z,4.66
2023-01-07T17:06:46.780Z,4.69
2023-01-07T17:09:22.513Z,4.72
2023-01-07T17:11:52.726Z,4.78
2023-01-07T17:14:34.508Z,4.82
2023-01-07T17:17:03.958Z,4.83
2023-01-07T17:19:38.875Z,4.86
2023-01-07T17:22:24.136Z,4.84
2023-01-07T17:24:50.672Z,4.86
2023-01-07T17:27:26.445Z,4.88
2023-01-07T17:29:53.465Z,4.88
2023-01-07T17:32:20.255Z,4.87
2023-01-07T17:34:46.710Z,4.85
2023-01-07T17:37:15.035Z,4.81
2023-01-07T17:39:41.852Z,4.79
2023-01-07T17:42:38.219Z,4.76
2023-01-07T17:45:05.116Z,4.73
2023-01-07T17:47:32.260Z,4.71
2023-01-07T17:49:58.862Z,4.71
2023-01-07T17:52:25.512Z,4.70
2023-01-07T17:54:51.934Z,4.64
2023-01-07T17:57:18.406Z,4.60
2023-01-07T17:59:47.928Z,4.58
2023-01-07T18:02:17.493Z,4.61
2023-01-07T18:04:44.052Z,4.62
2023-01-07T18:07:13.535Z,4.63
2023-01-07T18:09:42.178Z,4.60
2023-01-07T18:12:31.709Z,4.59
2023-01-07T18:14:58.851Z,4.58
2023-01-07T18:17:25.451Z,4.59
2023-01-07T18:19:51.971Z,4.59
2023-01-07T18:22:18.475Z,4.57
2023-01-07T18:24:44.957Z,4.56
2023-01-07T18:27:18.296Z,4.49
2023-01-07T18:29:44.892Z,4.42
2023-01-07T18:32:11.337Z,4.36
2023-01-07T18:34:37.833Z,4.34
2023-01-07T18:37:04.357Z,4.28
2023-01-07T18:39:30.854Z,4.26
2023-01-07T18:41:57.327Z,4.24
2023-01-07T18:44:24.229Z,4.24
2023-01-07T18:46:50.736Z,4.23
2023-01-07T18:49:17.195Z,4.18
2023-01-07T18:51:45.327Z,4.18
2023-01-07T18:54:11.805Z,4.19
2023-01-07T18:56:38.239Z,4.18
2023-01-07T18:59:05.623Z,4.16
2023-01-07T19:01:32.259Z,4.12
2023-01-07T19:03:58.793Z,4.13
2023-01-07T19:06:25.243Z,4.15
2023-01-07T19:08:51.814Z,4.10
2023-01-07T19:11:18.254Z,4.05
2023-01-07T19:13:44.694Z,4.02
2023-01-07T19:16:12.025Z,3.94
2023-01-07T19:18:39.233Z,3.91
2023-01-07T19:21:07.411Z,3.91
2023-01-07T19:23:34.083Z,3.90
2023-01-07T19:26:01.918Z,3.89
2023-01-07T19:28:28.439Z,3.88
2023-01-07T19:30:54.911Z,3.88
2023-01-07T19:33:21.419Z,3.85
2023-01-07T19:35:47.926Z,3.83
2023-01-07T19:38:14.438Z,3.81
2023-01-07T19:40:44.584Z,3.76
2023-01-07T19:43:12.029Z,3.73
2023-01-07T19:45:39.289Z,3.70
2023-01-07T19:48:06.371Z,3.68
2023-01-07T19:50:33.300Z,3.66
2023-01-07T19:53:00.223Z,3.66
2023-01-07T19:55:27.174Z,3.67
2023-01-07T19:57:53.665Z,3.68
2023-01-07T20:00:20.191Z,3.67
2023-01-07T20:02:46.868Z,3.67
2023-01-07T20:05:13.401Z,3.67
2023-01-07T20:07:39.855Z,3.66
2023-01-07T20:10:06.570Z,3.66
2023-01-07T20:12:33.214Z,3.64
2023-01-07T20:14:59.695Z,3.66
2023-01-07T20:17:26.220Z,3.68
2023-01-07T20:19:52.679Z,3.70
2023-01-07T20:22:19.189Z,3.72
2023-01-07T20:24:46.742Z,3.76
2023-01-07T20:27:13.271Z,3.75
2023-01-07T20:29:40.504Z,3.76
2023-01-07T20:32:08.280Z,3.80
2023-01-07T20:34:34.847Z,3.81
2023-01-07T20:37:01.291Z,3.79
2023-01-07T20:39:27.745Z,3.80
2023-01-07T20:41:54.183Z,3.79
2023-01-07T20:44:21.777Z,3.77
2023-01-07T20:46:48.471Z,3.78
2023-01-07T20:49:15.878Z,3.78
2023-01-07T20:51:42.552Z,3.77
2023-01-07T20:54:09.133Z,3.78
2023-01-07T20:56:36.263Z,3.79
2023-01-07T20:59:02.724Z,3.79
2023-01-07T21:01:30.002Z,3.80
2023-01-07T21:03:56.709Z,3.83
2023-01-07T21:06:23.201Z,3.79
2023-01-07T21:08:49.885Z,3.76
2023-01-07T21:11:17.944Z,3.73
2023-01-07T21:13:44.594Z,3.71
2023-01-07T21:16:11.759Z,3.67
2023-01-07T21:18:38.216Z,3.66
2023-01-07T21:21:09.989Z,3.63
2023-01-07T21:23:36.463Z,3.63
2023-01-07T21:26:03.075Z,3.65
2023-01-07T21:28:29.603Z,3.66
2023-01-07T21:30:56.060Z,3.65
2023-01-07T21:33:22.528Z,3.65
2023-01-07T21:35:49.015Z,3.66
2023-01-07T21:38:15.566Z,3.62
2023-01-07T21:40:42.099Z,3.60
2023-01-07T21:43:08.548Z,3.58
2023-01-07T21:45:36.154Z,3.59
2023-01-07T21:48:02.608Z,3.59
2023-01-07T21:50:29.070Z,3.60
2023-01-07T21:52:55.552Z,3.60
2023-01-07T21:55:22.096Z,3.60
2023-01-07T21:57:48.504Z,3.58
2023-01-07T22:00:15.219Z,3.58
2023-01-07T22:02:41.707Z,3.59
2023-01-07T22:05:08.521Z,3.56
2023-01-07T22:07:34.950Z,3.55
2023-01-07T22:10:02.390Z,3.53
2023-01-07T22:12:28.878Z,3.52
2023-01-07T22:14:55.310Z,3.55
2023-01-07T22:17:24.037Z,3.59
2023-01-07T22:19:50.463Z,3.59
2023-01-07T22:22:19.343Z,3.63
2023-01-07T22:24:45.768Z,3.60
2023-01-07T22:27:12.249Z,3.59
2023-01-07T22:29:38.683Z,3.63
2023-01-07T22:32:05.240Z,3.67
2023-01-07T22:34:32.525Z,3.67
2023-01-07T22:36:58.918Z,3.69
2023-01-07T22:39:29.066Z,3.73
2023-01-07T22:41:57.429Z,3.76
2023-01-07T22:44:26.910Z,3.78
2023-01-07T22:46:54.058Z,3.79
2023-01-07T22:49:21.476Z,3.80
2023-01-07T22:51:48.958Z,3.82
2023-01-07T22:54:16.296Z,3.84
2023-01-07T22:56:43.543Z,3.83
2023-01-07T22:59:10.004Z,3.86
2023-01-07T23:01:38.002Z,3.78
2023-01-07T23:04:05.194Z,3.77
2023-01-07T23:06:31.701Z,3.78
2023-01-07T23:08:58.268Z,3.73
2023-01-07T23:11:43.315Z,3.78
2023-01-07T23:14:09.816Z,3.81
2023-01-07T23:16:36.656Z,3.82
2023-01-07T23:19:03.163Z,3.80
2023-01-07T23:21:31.995Z,3.80
2023-01-07T23:23:58.754Z,3.81
2023-01-07T23:26:25.280Z,3.78
2023-01-07T23:28:51.906Z,3.78
2023-01-07T23:31:18.407Z,3.75
2023-01-07T23:33:45.260Z,3.72
2023-01-07T23:36:11.752Z,3.74
2023-01-07T23:38:38.194Z,3.77
2023-01-07T23:41:05.829Z,3.76
2023-01-07T23:43:32.589Z,3.76
2023-01-07T23:45:59.699Z,3.77
2023-01-07T23:48:26.831Z,3.82
2023-01-07T23:50:53.782Z,3.83
2023-01-07T23:53:20.784Z,3.84
2023-01-07T23:55:54.647Z,3.85
2023-01-07T23:58:21.936Z,3.81
